VK4VP-5 Buderim QLD AU current weather conditions

sailwx.info

Wind from 012 at 3 knots gusting 8

Air temperature 24.4° C
Dewpoint 22.1° C

Last reported at 2014-Nov-21 11:40 UTC.
Time now 2014-Nov-21 12:22 UTC

Location: S 26°42' E 153°05'.
View on Google Maps.

See reports from other nearby stations

  
Tides and Currents Weather Stations Pressure Air Temp Water Temp Dewpoint Dewpoint Depression Visibility Wind Speed Wind Dir Waves Ship Positions
date/time (UTC)wind fromknots sea level pressurealtimeterstation pressurevisibilityair tempwater tempwave heightnotes
2014-Nov-21 11:40 012 3 gusting 8 24.4
2014-Nov-21 11:30 357 3 gusting 9 24.4
2014-Nov-21 11:10 013 5 gusting 10 24.4
2014-Nov-21 11:00 016 3 gusting 8 24.4
2014-Nov-21 10:50 013 5 gusting 9 24.4
2014-Nov-21 10:40 016 6 gusting 9 24.4
2014-Nov-21 10:30 028 5 gusting 10 24.4
2014-Nov-21 10:10 019 6 gusting 13 25.0
2014-Nov-21 10:00 019 6 gusting 13 25.0
2014-Nov-21 09:40 020 6 gusting 15 25.0
2014-Nov-21 09:30 017 7 gusting 16 25.0
2014-Nov-21 09:10 014 9 gusting 17 25.0
2014-Nov-21 09:00 020 9 gusting 18 25.0
2014-Nov-21 08:50 015 8 gusting 19 25.0
2014-Nov-21 08:40 019 10 gusting 17 25.0
2014-Nov-21 08:30 021 9 gusting 19 25.0
2014-Nov-21 08:10 024 8 gusting 16 25.0
2014-Nov-21 08:00 026 7 gusting 14 25.6
2014-Nov-21 07:50 020 7 gusting 16 25.6
2014-Nov-21 07:40 025 7 gusting 14 25.6
2014-Nov-21 07:30 024 9 gusting 17 25.6
2014-Nov-21 07:10 020 6 gusting 13 26.1
2014-Nov-21 07:00 026 6 gusting 14 26.1
2014-Nov-21 06:50 023 9 gusting 17 26.1
2014-Nov-21 06:40 031 7 gusting 16 26.1
2014-Nov-21 06:30 021 7 gusting 17 26.1
2014-Nov-21 06:10 023 10 gusting 18 26.1
2014-Nov-21 06:00 028 9 gusting 19 26.7
2014-Nov-21 05:50 033 9 gusting 19 26.7
2014-Nov-21 05:40 022 9 gusting 19 26.7
2014-Nov-21 05:30 028 9 gusting 16 26.7
2014-Nov-21 05:10 028 8 gusting 16 26.7
2014-Nov-21 05:00 025 7 gusting 17 27.2
2014-Nov-21 04:40 016 11 gusting 19 26.7
2014-Nov-21 04:30 016 8 gusting 18 27.2
2014-Nov-21 04:10 038 10 gusting 19 26.7
2014-Nov-21 04:00 039 8 gusting 21 26.7
2014-Nov-21 03:50 035 9 gusting 18 26.7
2014-Nov-21 03:40 038 10 gusting 19 26.7
2014-Nov-21 03:30 025 7 gusting 15 27.2
2014-Nov-21 03:10 036 9 gusting 15 27.2
2014-Nov-21 03:00 032 7 gusting 16 27.2
2014-Nov-21 02:50 032 8 gusting 16 26.7
2014-Nov-21 02:40 033 10 gusting 18 26.7
2014-Nov-21 02:30 025 10 gusting 18 26.7
2014-Nov-21 02:10 027 10 gusting 18 26.7
2014-Nov-21 02:00 027 10 gusting 19 26.7
2014-Nov-21 01:40 023 9 gusting 18 26.7
2014-Nov-21 01:30 022 8 gusting 16 26.7
2014-Nov-21 01:10 029 8 gusting 18 26.7
2014-Nov-21 01:00 027 8 gusting 18 26.7
2014-Nov-21 00:40 023 6 gusting 15 27.2
2014-Nov-21 00:30 038 6 gusting 13 27.2
2014-Nov-21 00:10 032 5 gusting 13 26.1
2014-Nov-21 00:00 032 6 gusting 14 26.7
2014-Nov-20 23:50 031 8 gusting 15 26.7
2014-Nov-20 23:40 034 6 gusting 15 26.1
2014-Nov-20 23:30 047 6 gusting 13 26.7
2014-Nov-20 23:10 026 6 gusting 10 25.6
2014-Nov-20 23:00 030 4 gusting 10 25.6
2014-Nov-20 22:50 035 5 gusting 13 25.6
2014-Nov-20 22:40 017 1 gusting 8 25.6
2014-Nov-20 22:30 009 2 gusting 8 25.6
2014-Nov-20 22:10 352 3 gusting 9 25.0
2014-Nov-20 22:00 338 4 gusting 10 25.0
2014-Nov-20 21:50 340 6 gusting 12 25.0
2014-Nov-20 21:40 331 4 gusting 9 25.6
2014-Nov-20 21:30 352 4 gusting 11 25.6
2014-Nov-20 21:10 353 3 gusting 8 24.4
2014-Nov-20 21:00 339 3 gusting 10 23.9
2014-Nov-20 20:50 017 3 gusting 8 24.4
2014-Nov-20 20:40 350 4 gusting 11 23.9
2014-Nov-20 20:30 350 3 gusting 7 23.9
2014-Nov-20 20:10 351 2 gusting 7 23.3
2014-Nov-20 20:00 348 1 gusting 7 22.8
2014-Nov-20 19:50 347 0 gusting 5 22.8
2014-Nov-20 19:40 347 22.8
2014-Nov-20 19:30 347 22.8
2014-Nov-20 19:10 348 0 gusting 3 22.2
2014-Nov-20 19:00 348 0 gusting 5 22.2
2014-Nov-20 18:50 348 0 gusting 3 22.2
2014-Nov-20 18:40 348 22.2
2014-Nov-20 18:30 348 0 gusting 3 22.2
2014-Nov-20 18:10 347 22.2
2014-Nov-20 18:00 347 0 gusting 5 22.8
2014-Nov-20 17:50 347 0 gusting 3 22.8
2014-Nov-20 17:40 347 0 gusting 5 22.8
2014-Nov-20 17:30 348 0 gusting 5 22.8
2014-Nov-20 17:10 348 0 gusting 3 22.8
2014-Nov-20 17:00 348 0 gusting 5 22.8
2014-Nov-20 16:40 348 2 gusting 7 22.8
2014-Nov-20 16:30 343 2 gusting 8 22.8
2014-Nov-20 16:10 342 0 gusting 3 22.8
2014-Nov-20 16:00 342 0 gusting 5 22.8
2014-Nov-20 15:50 343 0 gusting 5 22.8
2014-Nov-20 15:40 343 2 gusting 6 22.8
2014-Nov-20 15:30 350 2 gusting 6 22.8
2014-Nov-20 15:10 355 22.8
2014-Nov-20 15:00 355 22.8
2014-Nov-20 14:50 355 0 gusting 3 22.8
2014-Nov-20 14:40 354 1 gusting 5 23.3
2014-Nov-20 14:30 355 0 gusting 5 23.3
2014-Nov-20 14:10 356 2 gusting 6 23.3
2014-Nov-20 14:00 001 0 gusting 5 23.3
2014-Nov-20 13:50 001 0 gusting 5 23.3
2014-Nov-20 13:40 001 0 gusting 5 23.3
2014-Nov-20 13:30 358 0 gusting 6 23.3
2014-Nov-20 13:10 354 1 gusting 6 23.3
2014-Nov-20 13:00 355 23.9
2014-Nov-20 12:40 355 0 gusting 3 23.9
2014-Nov-20 12:30 355 0 gusting 3 23.9
2014-Nov-20 12:10 358 2 gusting 8 23.9
2014-Nov-20 12:00 349 2 gusting 8 23.9
2014-Nov-20 11:50 354 3 gusting 6 23.9
2014-Nov-20 11:40 020 4 gusting 8 23.9
2014-Nov-20 11:30 022 4 gusting 10 23.9
2014-Nov-20 11:10 028 4 gusting 9 23.9
2014-Nov-20 11:00 019 4 gusting 11 23.9
2014-Nov-20 10:50 032 3 gusting 7 24.4
2014-Nov-20 10:40 023 3 gusting 8 24.4
2014-Nov-20 10:30 016 4 gusting 9 24.4
2014-Nov-20 10:10 016 4 gusting 8 24.4
2014-Nov-20 10:00 027 4 gusting 9 24.4
2014-Nov-20 09:50 026 5 gusting 11 24.4
2014-Nov-20 09:40 029 4 gusting 11 24.4
2014-Nov-20 09:30 024 4 gusting 10 24.4
2014-Nov-20 09:10 023 5 gusting 9 24.4
2014-Nov-20 09:00 024 5 gusting 12 24.4
2014-Nov-20 08:50 023 5 gusting 12 24.4
2014-Nov-20 08:40 022 4 gusting 10 24.4
2014-Nov-20 08:30 023 4 gusting 10 24.4
2014-Nov-20 08:10 036 5 gusting 11 24.4
2014-Nov-20 08:00 018 6 gusting 11 24.4
2014-Nov-20 07:50 022 6 gusting 14 24.4
2014-Nov-20 07:40 025 6 gusting 13 24.4
2014-Nov-20 07:30 029 6 gusting 11 25.0
2014-Nov-20 07:10 026 6 gusting 14 25.0
2014-Nov-20 07:00 035 5 gusting 13 25.0
2014-Nov-20 06:50 037 6 gusting 13 25.0
2014-Nov-20 06:40 027 6 gusting 17 25.0
2014-Nov-20 06:30 041 6 gusting 14 25.6
2014-Nov-20 06:10 031 6 gusting 13 26.1
2014-Nov-20 06:00 028 6 gusting 16 26.1
2014-Nov-20 05:40 028 6 gusting 15 26.1
2014-Nov-20 05:30 029 8 gusting 16 25.6
2014-Nov-20 05:10 037 6 gusting 11 25.6
2014-Nov-20 05:00 035 6 gusting 14 25.6
2014-Nov-20 04:50 023 6 gusting 17 26.1
2014-Nov-20 04:40 036 6 gusting 13 25.6
2014-Nov-20 04:30 044 6 gusting 12 26.1
2014-Nov-20 04:20 043 5 gusting 13 26.1
2014-Nov-20 04:10 059 4 gusting 9 26.1
2014-Nov-20 04:00 042 5 gusting 14 26.1
2014-Nov-20 03:50 041 4 gusting 11 26.1
2014-Nov-20 03:40 036 6 gusting 14 26.1
2014-Nov-20 03:30 048 4 gusting 14 26.1
2014-Nov-20 03:10 050 2 gusting 8 26.7
2014-Nov-20 03:00 054 2 gusting 10 26.7
2014-Nov-20 02:50 054 4 gusting 9 26.1
2014-Nov-20 02:40 058 3 gusting 9 26.1
2014-Nov-20 02:30 090 2 gusting 8 26.7
2014-Nov-20 02:10 054 3 gusting 9 26.7
2014-Nov-20 02:00 041 3 gusting 9 26.7
2014-Nov-20 01:40 031 3 gusting 8 26.7
2014-Nov-20 01:30 046 3 gusting 8 26.7
2014-Nov-20 01:10 072 2 gusting 8 26.1
2014-Nov-20 01:00 064 2 gusting 8 26.7
2014-Nov-20 00:50 074 2 gusting 8 26.1
2014-Nov-20 00:40 084 1 gusting 7 26.1
2014-Nov-20 00:30 082 2 gusting 8 26.1
2014-Nov-20 00:10 110 1 gusting 7 25.6
2014-Nov-20 00:00 076 0 gusting 7 26.1
2014-Nov-19 23:50 058 2 gusting 7 25.6
2014-Nov-19 23:40 049 2 gusting 6 25.6
2014-Nov-19 23:30 076 2 gusting 8 25.6
2014-Nov-19 23:10 059 0 gusting 3 25.0
2014-Nov-19 23:00 072 1 gusting 7 24.4
2014-Nov-19 22:50 082 24.4
2014-Nov-19 22:40 083 24.4
2014-Nov-19 22:30 083 0 gusting 5 23.9
2014-Nov-19 22:10 23.3
2014-Nov-19 22:00 197 22.8
2014-Nov-19 21:40 197 22.8
2014-Nov-19 21:30 197 22.8
2014-Nov-19 21:10 197 22.8
2014-Nov-19 21:00 197 23.3
2014-Nov-19 20:50 196 22.8
2014-Nov-19 20:40 21.7
2014-Nov-19 20:30 21.1
2014-Nov-19 20:10 210 19.4
2014-Nov-19 20:00 237 19.4
2014-Nov-19 19:50 345 18.9
2014-Nov-19 19:40 345 18.3
2014-Nov-19 19:30 345 18.3
2014-Nov-19 19:10 17.8
2014-Nov-19 19:00 17.8
2014-Nov-19 18:50 345 17.8
2014-Nov-19 18:40 17.8
2014-Nov-19 18:30 17.8
2014-Nov-19 18:10 17.8
2014-Nov-19 18:00 17.8
2014-Nov-19 17:50 18.3
2014-Nov-19 17:40 18.3
2014-Nov-19 17:30 18.3
2014-Nov-19 17:10 18.3
2014-Nov-19 17:00 18.3
2014-Nov-19 16:50 18.9
2014-Nov-19 16:40 18.9
2014-Nov-19 16:30 18.9
2014-Nov-19 16:20 18.9
2014-Nov-19 16:10 345 18.9
2014-Nov-19 16:00 345 19.4
2014-Nov-19 15:40 19.4
2014-Nov-19 15:30 345 19.4
2014-Nov-19 15:10 345 19.4
2014-Nov-19 15:00 345 0 gusting 3 19.4
2014-Nov-19 14:50 345 0 gusting 2 20.0
2014-Nov-19 14:40 345 20.0
2014-Nov-19 14:30 345 0 gusting 2 20.0
2014-Nov-19 14:20 345 0 gusting 2 20.0
2014-Nov-19 14:10 345 20.0
2014-Nov-19 14:00 345 20.6
2014-Nov-19 13:50 344 2 gusting 6 20.6
2014-Nov-19 13:40 330 3 gusting 8 20.6
2014-Nov-19 13:30 323 3 gusting 7 20.6
2014-Nov-19 13:20 325 4 gusting 8 20.6
2014-Nov-19 13:10 342 3 gusting 8 20.6
2014-Nov-19 13:00 352 3 gusting 7 20.6
2014-Nov-19 12:50 355 0 gusting 5 20.6
2014-Nov-19 12:40 355 1 gusting 6 20.0
2014-Nov-19 12:30 355 0 gusting 2 20.0
2014-Nov-19 12:20 355 20.0
2014-Nov-19 12:10 355 20.6
2014-Nov-19 12:00 355 20.6